Time;durP1;ratioP1;P1;durP2;ratioP2;P2;SDS_P1;SDS_P2;PMS_P1;PMS_P2;Temp;Humidity;BMP_temperature;BMP_pressure;BME280_temperature;BME280_humidity;BME280_pressure;Samples;Min_cycle;Max_cycle;Signal;HPM_P1;HPM_P2
2021/07/28 00:00:32;;;;;;;9.88;7.65;;;;;;;;;;4700602;30;20045;-78
2021/07/28 00:02:57;;;;;;;10.05;7.53;;;;;;;;;;4681203;30;20041;-78
2021/07/28 00:05:23;;;;;;;10.15;7.00;;;;;;;;;;4695614;30;20044;-78
2021/07/28 00:07:48;;;;;;;9.88;7.30;;;;;;;;;;4694398;30;20377;-78
2021/07/28 00:10:14;;;;;;;10.70;7.32;;;;;;;;;;4680933;30;20120;-78
2021/07/28 00:12:39;;;;;;;9.43;7.30;;;;;;;;;;4682201;30;20454;-78
2021/07/28 00:15:07;;;;;;;9.43;7.57;;;;;;;;;;4683277;30;20495;-79
2021/07/28 00:17:32;;;;;;;10.70;7.20;;;;;;;;;;4684051;30;20065;-79
2021/07/28 00:20:05;;;;;;;12.50;7.70;;;;;;;;;;4683763;30;20037;-78
2021/07/28 00:25:20;;;;;;;10.10;7.63;;;;;;;;;;4695928;30;20044;-78
2021/07/28 00:27:45;;;;;;;12.15;7.78;;;;;;;;;;4668097;30;20487;-78
2021/07/28 00:30:11;;;;;;;10.18;7.90;;;;;;;;;;4677765;30;20042;-78
2021/07/28 00:32:36;;;;;;;9.45;7.68;;;;;;;;;;4674848;30;20420;-78
2021/07/28 00:35:02;;;;;;;10.13;7.15;;;;;;;;;;4665898;30;20045;-78
2021/07/28 00:37:28;;;;;;;10.07;7.45;;;;;;;;;;4690311;30;20573;-78
2021/07/28 00:39:54;;;;;;;11.50;7.45;;;;;;;;;;4675625;30;20032;-78
2021/07/28 00:42:19;;;;;;;9.65;7.18;;;;;;;;;;4694160;30;20045;-78
2021/07/28 00:44:44;;;;;;;11.35;7.47;;;;;;;;;;4673520;30;20096;-78
2021/07/28 00:47:11;;;;;;;9.40;7.22;;;;;;;;;;4678769;30;20124;-78
2021/07/28 00:49:37;;;;;;;11.98;7.70;;;;;;;;;;4673218;30;20133;-78
2021/07/28 00:52:04;;;;;;;10.73;7.57;;;;;;;;;;4698986;30;20088;-78
2021/07/28 00:54:30;;;;;;;9.95;7.28;;;;;;;;;;4675281;30;20125;-78
2021/07/28 00:56:57;;;;;;;10.35;7.95;;;;;;;;;;4684490;30;20080;-78
2021/07/28 00:59:24;;;;;;;9.70;7.20;;;;;;;;;;4677094;30;20427;-78
2021/07/28 01:01:49;;;;;;;9.75;7.40;;;;;;;;;;4672589;30;20561;-78
2021/07/28 01:04:15;;;;;;;9.23;7.22;;;;;;;;;;4664999;30;20038;-78
2021/07/28 01:06:40;;;;;;;10.48;7.07;;;;;;;;;;4689014;30;20095;-78
2021/07/28 01:09:06;;;;;;;9.60;7.10;;;;;;;;;;4675614;30;20534;-78
2021/07/28 01:11:31;;;;;;;9.75;7.95;;;;;;;;;;4669734;30;20079;-78
2021/07/28 01:13:56;;;;;;;10.65;7.75;;;;;;;;;;4675729;30;20053;-78
2021/07/28 01:16:25;;;;;;;10.55;7.50;;;;;;;;;;4688126;30;20041;-78
2021/07/28 01:18:52;;;;;;;8.52;6.95;;;;;;;;;;4681624;30;20402;-78
2021/07/28 01:21:19;;;;;;;9.60;7.85;;;;;;;;;;4695539;30;20041;-78
2021/07/28 01:23:46;;;;;;;10.77;7.55;;;;;;;;;;4683612;30;20038;-78
2021/07/28 01:26:14;;;;;;;10.18;7.72;;;;;;;;;;4699867;30;20056;-78
2021/07/28 01:28:40;;;;;;;9.85;7.10;;;;;;;;;;4698877;30;20064;-78
2021/07/28 01:31:10;;;;;;;11.63;7.45;;;;;;;;;;4676554;30;20034;-78
2021/07/28 01:33:41;;;;;;;9.57;7.30;;;;;;;;;;4677229;30;20034;-78
2021/07/28 01:36:10;;;;;;;13.10;7.18;;;;;;;;;;4695258;30;20033;-78
2021/07/28 01:38:35;;;;;;;9.50;7.20;;;;;;;;;;4677959;30;20037;-77
2021/07/28 01:41:04;;;;;;;10.25;7.35;;;;;;;;;;4693183;30;20049;-78
2021/07/28 01:43:30;;;;;;;9.55;7.32;;;;;;;;;;4695856;30;20042;-78
2021/07/28 01:45:56;;;;;;;10.20;7.20;;;;;;;;;;4682655;30;20424;-78
2021/07/28 01:48:22;;;;;;;11.38;7.45;;;;;;;;;;4678842;30;20044;-78
2021/07/28 01:50:48;;;;;;;9.68;7.30;;;;;;;;;;4677858;30;20476;-78
2021/07/28 01:53:14;;;;;;;10.85;6.82;;;;;;;;;;4687673;30;20077;-78
2021/07/28 01:55:41;;;;;;;13.18;6.60;;;;;;;;;;4679093;30;20038;-78
2021/07/28 01:58:06;;;;;;;9.43;6.95;;;;;;;;;;4693211;30;20060;-78
2021/07/28 02:00:32;;;;;;;8.35;6.70;;;;;;;;;;4677589;30;20496;-78
2021/07/28 02:03:04;;;;;;;10.02;6.53;;;;;;;;;;4688638;30;20047;-78
2021/07/28 02:05:30;;;;;;;10.45;7.10;;;;;;;;;;4676453;30;20058;-78
2021/07/28 02:08:01;;;;;;;10.00;6.57;;;;;;;;;;4680406;30;20033;-78
2021/07/28 02:10:27;;;;;;;10.00;6.90;;;;;;;;;;4678432;30;20030;-78
2021/07/28 02:12:52;;;;;;;10.68;7.47;;;;;;;;;;4665409;30;20041;-78
2021/07/28 02:15:18;;;;;;;9.93;6.70;;;;;;;;;;4681849;30;20104;-78
2021/07/28 02:17:43;;;;;;;10.40;6.13;;;;;;;;;;4671099;30;20042;-78
2021/07/28 02:20:09;;;;;;;9.43;6.53;;;;;;;;;;4659230;30;20037;-78
2021/07/28 02:22:34;;;;;;;10.88;6.75;;;;;;;;;;4660139;30;20074;-77
2021/07/28 02:25:00;;;;;;;9.52;7.13;;;;;;;;;;4674154;30;20100;-78
2021/07/28 02:27:25;;;;;;;8.95;6.70;;;;;;;;;;4671799;30;20041;-78
2021/07/28 02:29:51;;;;;;;11.45;7.18;;;;;;;;;;4677746;30;20424;-77
2021/07/28 02:32:16;;;;;;;8.82;6.50;;;;;;;;;;4672508;30;20101;-77
2021/07/28 02:34:41;;;;;;;9.40;6.35;;;;;;;;;;4690532;30;20053;-78
2021/07/28 02:37:07;;;;;;;10.80;6.88;;;;;;;;;;4675186;30;20041;-78
2021/07/28 02:39:32;;;;;;;9.60;6.55;;;;;;;;;;4695405;30;20030;-78
2021/07/28 02:41:59;;;;;;;10.30;6.78;;;;;;;;;;4665155;30;20037;-78
2021/07/28 02:44:25;;;;;;;8.50;5.80;;;;;;;;;;4676952;30;20045;-78
2021/07/28 02:46:50;;;;;;;9.32;6.57;;;;;;;;;;4673977;30;20053;-78
2021/07/28 02:49:16;;;;;;;10.75;5.93;;;;;;;;;;4679293;30;20044;-78
2021/07/28 02:51:41;;;;;;;8.57;6.63;;;;;;;;;;4674459;30;20042;-78
2021/07/28 02:54:08;;;;;;;9.88;6.43;;;;;;;;;;4678190;30;20049;-78
2021/07/28 02:56:33;;;;;;;8.90;6.20;;;;;;;;;;4673859;30;20038;-77
2021/07/28 02:58:59;;;;;;;11.52;6.55;;;;;;;;;;4680886;30;20040;-78
2021/07/28 03:01:24;;;;;;;9.00;6.28;;;;;;;;;;4668773;30;20042;-78
2021/07/28 03:03:49;;;;;;;10.43;6.10;;;;;;;;;;4678852;30;20038;-78
2021/07/28 03:06:15;;;;;;;10.10;6.82;;;;;;;;;;4687517;30;20042;-78
2021/07/28 03:08:40;;;;;;;11.00;6.18;;;;;;;;;;4695390;30;20046;-78
2021/07/28 03:11:06;;;;;;;9.48;6.38;;;;;;;;;;4677687;30;20567;-78
2021/07/28 03:13:31;;;;;;;10.50;6.95;;;;;;;;;;4668717;30;20034;-78
2021/07/28 03:16:04;;;;;;;8.48;6.22;;;;;;;;;;4668019;30;20150;-78
2021/07/28 03:18:30;;;;;;;12.35;6.20;;;;;;;;;;4675182;30;20034;-78
2021/07/28 03:20:56;;;;;;;10.63;6.38;;;;;;;;;;4667391;30;20044;-78
2021/07/28 03:23:21;;;;;;;10.38;6.60;;;;;;;;;;4672839;30;20049;-77
2021/07/28 03:25:46;;;;;;;8.05;6.18;;;;;;;;;;4672714;30;20056;-78
2021/07/28 03:28:12;;;;;;;8.05;6.13;;;;;;;;;;4687045;30;20042;-78
2021/07/28 03:30:37;;;;;;;10.30;6.90;;;;;;;;;;4670075;30;20136;-77
2021/07/28 03:33:02;;;;;;;10.77;6.30;;;;;;;;;;4674741;30;20104;-78
2021/07/28 03:35:28;;;;;;;10.63;6.60;;;;;;;;;;4676142;30;20052;-78
2021/07/28 03:37:53;;;;;;;8.38;6.60;;;;;;;;;;4679145;30;20399;-78
2021/07/28 03:40:19;;;;;;;8.80;6.38;;;;;;;;;;4687340;30;20045;-77
2021/07/28 03:42:47;;;;;;;10.68;6.88;;;;;;;;;;4682960;30;20451;-77
2021/07/28 03:45:13;;;;;;;11.98;6.95;;;;;;;;;;4666201;30;20041;-78
2021/07/28 03:47:39;;;;;;;11.52;7.28;;;;;;;;;;4670443;30;20055;-78
2021/07/28 03:50:05;;;;;;;10.38;7.40;;;;;;;;;;4676288;30;20111;-78
2021/07/28 03:52:31;;;;;;;10.40;7.55;;;;;;;;;;4693331;30;20048;-77
2021/07/28 03:54:56;;;;;;;10.95;8.00;;;;;;;;;;4678015;30;20042;-77
2021/07/28 03:57:21;;;;;;;12.15;7.60;;;;;;;;;;4672007;30;20037;-77
2021/07/28 03:59:47;;;;;;;13.30;7.65;;;;;;;;;;4692781;30;20034;-78
2021/07/28 04:02:13;;;;;;;10.38;7.60;;;;;;;;;;4678916;30;20048;-78
2021/07/28 04:04:39;;;;;;;12.80;8.48;;;;;;;;;;4696234;30;20116;-78
2021/07/28 04:07:05;;;;;;;12.45;8.13;;;;;;;;;;4675605;30;20049;-78
2021/07/28 04:09:30;;;;;;;11.73;8.32;;;;;;;;;;4680067;30;20092;-78
2021/07/28 04:11:56;;;;;;;12.02;8.50;;;;;;;;;;4682717;30;20049;-77
2021/07/28 04:14:21;;;;;;;13.88;8.23;;;;;;;;;;4670227;30;20096;-77
2021/07/28 04:16:46;;;;;;;11.77;8.25;;;;;;;;;;4666954;30;20061;-78
2021/07/28 04:19:12;;;;;;;12.95;8.30;;;;;;;;;;4674762;30;20046;-78
2021/07/28 04:21:37;;;;;;;11.65;8.57;;;;;;;;;;4671874;30;20437;-78
2021/07/28 04:24:03;;;;;;;11.00;8.30;;;;;;;;;;4672539;30;20120;-77
2021/07/28 04:26:28;;;;;;;11.15;7.90;;;;;;;;;;4672440;30;20044;-78
2021/07/28 04:28:54;;;;;;;13.77;8.52;;;;;;;;;;4673202;30;20141;-77
2021/07/28 04:31:19;;;;;;;10.73;7.82;;;;;;;;;;4672772;30;20049;-78
2021/07/28 04:33:44;;;;;;;10.35;8.15;;;;;;;;;;4676820;30;20041;-78
2021/07/28 04:36:10;;;;;;;10.73;8.07;;;;;;;;;;4667069;30;20148;-78
2021/07/28 04:38:35;;;;;;;11.35;7.60;;;;;;;;;;4679102;30;20110;-77
2021/07/28 04:41:01;;;;;;;12.63;8.23;;;;;;;;;;4691644;30;20064;-78
2021/07/28 04:43:26;;;;;;;11.75;8.43;;;;;;;;;;4682001;30;20630;-77
2021/07/28 04:46:02;;;;;;;10.65;8.00;;;;;;;;;;4695644;30;20042;-78
2021/07/28 04:48:28;;;;;;;10.13;8.40;;;;;;;;;;4698679;30;20154;-77
2021/07/28 04:50:55;;;;;;;13.55;8.40;;;;;;;;;;4672383;30;20407;-77
2021/07/28 04:53:20;;;;;;;11.88;7.80;;;;;;;;;;4699652;30;20041;-78
2021/07/28 04:55:53;;;;;;;11.77;7.95;;;;;;;;;;4684286;30;20033;-78
2021/07/28 04:58:19;;;;;;;14.25;8.40;;;;;;;;;;4671186;30;20057;-78
2021/07/28 05:00:46;;;;;;;14.35;8.52;;;;;;;;;;4691872;30;20038;-78
2021/07/28 05:03:11;;;;;;;12.32;8.75;;;;;;;;;;4681330;30;20052;-78
2021/07/28 05:05:36;;;;;;;11.68;8.20;;;;;;;;;;4674392;30;20046;-77
2021/07/28 05:08:02;;;;;;;13.10;8.48;;;;;;;;;;4675687;30;20397;-78
2021/07/28 05:10:27;;;;;;;10.75;8.35;;;;;;;;;;4689552;30;20048;-78
2021/07/28 05:12:53;;;;;;;12.55;9.10;;;;;;;;;;4669554;30;20097;-77
2021/07/28 05:15:18;;;;;;;12.10;9.20;;;;;;;;;;4670278;30;20451;-77
2021/07/28 05:17:43;;;;;;;10.98;8.77;;;;;;;;;;4681431;30;20042;-78
2021/07/28 05:20:10;;;;;;;14.23;9.10;;;;;;;;;;4680117;30;20040;-77
2021/07/28 05:22:35;;;;;;;14.50;9.38;;;;;;;;;;4667169;30;20065;-77
2021/07/28 05:25:02;;;;;;;15.80;9.30;;;;;;;;;;4669555;30;20038;-77
2021/07/28 05:27:28;;;;;;;11.40;9.20;;;;;;;;;;4677657;30;20132;-77
2021/07/28 05:29:54;;;;;;;12.60;8.60;;;;;;;;;;4670715;30;20492;-78
2021/07/28 05:32:22;;;;;;;12.93;8.90;;;;;;;;;;4676075;30;20033;-78
2021/07/28 05:34:49;;;;;;;17.83;9.45;;;;;;;;;;4678220;30;20096;-78
2021/07/28 05:37:15;;;;;;;17.40;9.35;;;;;;;;;;4673889;30;20041;-77
2021/07/28 05:39:40;;;;;;;13.05;8.98;;;;;;;;;;4667313;30;20064;-78
2021/07/28 05:42:05;;;;;;;12.18;8.90;;;;;;;;;;4665261;30;20042;-78
2021/07/28 05:44:32;;;;;;;12.98;9.80;;;;;;;;;;4692812;30;20108;-78
2021/07/28 05:46:57;;;;;;;15.38;9.02;;;;;;;;;;4683897;30;20041;-78
2021/07/28 05:49:23;;;;;;;15.52;9.13;;;;;;;;;;4683444;30;20041;-78
2021/07/28 05:51:49;;;;;;;15.15;9.38;;;;;;;;;;4698167;30;20128;-78
2021/07/28 05:54:14;;;;;;;13.00;9.40;;;;;;;;;;4676626;30;20042;-78
2021/07/28 05:56:40;;;;;;;12.70;9.43;;;;;;;;;;4682702;30;20380;-78
2021/07/28 05:59:05;;;;;;;13.15;9.68;;;;;;;;;;4682597;30;20057;-78
2021/07/28 06:01:31;;;;;;;15.88;9.35;;;;;;;;;;4693653;30;20101;-78
2021/07/28 06:03:56;;;;;;;13.90;10.77;;;;;;;;;;4669819;30;20490;-78
2021/07/28 06:06:25;;;;;;;15.85;9.75;;;;;;;;;;4665382;30;20086;-78
2021/07/28 06:08:51;;;;;;;13.05;9.60;;;;;;;;;;4679708;30;20072;-78
2021/07/28 06:11:16;;;;;;;14.32;9.93;;;;;;;;;;4669750;30;20038;-78
2021/07/28 06:13:41;;;;;;;13.50;9.95;;;;;;;;;;4688040;30;20116;-78
2021/07/28 06:16:07;;;;;;;13.50;10.30;;;;;;;;;;4680086;30;20048;-78
2021/07/28 06:18:33;;;;;;;13.68;10.93;;;;;;;;;;4679468;30;20621;-78
2021/07/28 06:20:59;;;;;;;14.02;9.30;;;;;;;;;;4696831;30;20037;-78
2021/07/28 06:23:24;;;;;;;15.45;10.65;;;;;;;;;;4686993;30;20163;-78
2021/07/28 06:25:50;;;;;;;14.77;10.60;;;;;;;;;;4675524;30;20077;-78
2021/07/28 06:28:15;;;;;;;11.65;9.63;;;;;;;;;;4672744;30;20054;-78
2021/07/28 06:30:41;;;;;;;12.98;9.82;;;;;;;;;;4682490;30;20125;-78
2021/07/28 06:33:06;;;;;;;14.00;10.05;;;;;;;;;;4700480;30;20056;-78
2021/07/28 06:35:31;;;;;;;13.05;9.77;;;;;;;;;;4674791;30;20042;-78
2021/07/28 06:37:57;;;;;;;12.35;9.60;;;;;;;;;;4679429;30;20080;-78
2021/07/28 06:40:22;;;;;;;13.80;9.55;;;;;;;;;;4700230;30;20033;-78
2021/07/28 06:42:47;;;;;;;12.43;9.32;;;;;;;;;;4686453;30;20518;-79
2021/07/28 06:45:13;;;;;;;14.05;8.88;;;;;;;;;;4675741;30;20049;-79
2021/07/28 06:47:39;;;;;;;11.48;8.80;;;;;;;;;;4700281;30;20096;-78
2021/07/28 06:50:05;;;;;;;12.77;8.98;;;;;;;;;;4673789;30;20053;-78
2021/07/28 06:52:30;;;;;;;12.93;9.10;;;;;;;;;;4675788;30;20048;-79
2021/07/28 06:54:56;;;;;;;9.85;8.35;;;;;;;;;;4700882;30;20563;-79
2021/07/28 06:57:21;;;;;;;12.90;8.93;;;;;;;;;;4674235;30;20042;-79
2021/07/28 06:59:47;;;;;;;11.63;8.85;;;;;;;;;;4683341;30;20038;-78
2021/07/28 07:02:12;;;;;;;12.00;9.05;;;;;;;;;;4686857;30;20496;-79
2021/07/28 07:04:37;;;;;;;13.93;9.02;;;;;;;;;;4678300;30;20046;-79
2021/07/28 07:07:03;;;;;;;15.98;9.40;;;;;;;;;;4681621;30;20097;-78
2021/07/28 07:09:28;;;;;;;12.10;9.15;;;;;;;;;;4685910;30;20074;-79
2021/07/28 07:11:54;;;;;;;12.70;8.38;;;;;;;;;;4678430;30;20045;-79
2021/07/28 07:14:21;;;;;;;14.65;8.50;;;;;;;;;;4681276;30;20049;-79
2021/07/28 07:16:47;;;;;;;11.75;8.00;;;;;;;;;;4675605;30;20042;-79
2021/07/28 07:19:12;;;;;;;11.10;8.07;;;;;;;;;;4699582;30;20042;-79
2021/07/28 07:21:38;;;;;;;14.38;7.70;;;;;;;;;;4701614;30;20053;-79
2021/07/28 07:24:03;;;;;;;13.90;7.82;;;;;;;;;;4700050;30;20042;-78
2021/07/28 07:26:29;;;;;;;12.55;7.60;;;;;;;;;;4674142;30;20117;-79
2021/07/28 07:28:54;;;;;;;11.93;6.82;;;;;;;;;;4701129;30;20054;-79
2021/07/28 07:31:20;;;;;;;10.80;6.63;;;;;;;;;;4698446;30;20065;-78
2021/07/28 07:33:45;;;;;;;11.63;6.70;;;;;;;;;;4708167;30;20061;-79
2021/07/28 07:36:14;;;;;;;10.38;6.40;;;;;;;;;;4700065;30;21645;-79
2021/07/28 07:38:40;;;;;;;9.30;5.85;;;;;;;;;;4686092;30;20483;-79
2021/07/28 07:41:06;;;;;;;8.45;6.47;;;;;;;;;;4699432;30;20118;-78
2021/07/28 07:43:33;;;;;;;9.05;5.90;;;;;;;;;;4677379;30;20037;-79
2021/07/28 07:45:59;;;;;;;10.02;6.03;;;;;;;;;;4684780;30;20041;-79
2021/07/28 07:48:25;;;;;;;10.00;6.70;;;;;;;;;;4703074;30;20155;-79
2021/07/28 07:50:51;;;;;;;10.68;5.93;;;;;;;;;;4682576;30;20049;-79
2021/07/28 07:53:17;;;;;;;8.88;6.35;;;;;;;;;;4681390;30;20045;-79
2021/07/28 07:55:42;;;;;;;9.55;6.50;;;;;;;;;;4682644;30;20048;-79
2021/07/28 07:58:07;;;;;;;9.50;6.30;;;;;;;;;;4699974;30;20080;-79
2021/07/28 08:00:33;;;;;;;8.30;6.10;;;;;;;;;;4681412;30;20052;-79
2021/07/28 08:02:58;;;;;;;9.95;5.90;;;;;;;;;;4679435;30;20037;-80
2021/07/28 08:05:24;;;;;;;8.70;6.15;;;;;;;;;;4682437;30;20049;-79
2021/07/28 08:07:49;;;;;;;11.98;6.68;;;;;;;;;;4672622;30;20072;-79
2021/07/28 08:10:15;;;;;;;7.75;5.95;;;;;;;;;;4667792;30;20127;-79
2021/07/28 08:12:40;;;;;;;7.63;5.63;;;;;;;;;;4668206;30;20727;-79
2021/07/28 08:15:06;;;;;;;7.25;5.65;;;;;;;;;;4682460;30;20041;-79
2021/07/28 08:17:31;;;;;;;9.10;5.85;;;;;;;;;;4667237;30;20041;-79
2021/07/28 08:19:57;;;;;;;7.88;5.10;;;;;;;;;;4700630;30;20034;-79
2021/07/28 08:22:23;;;;;;;8.43;4.88;;;;;;;;;;4698797;30;20029;-80
2021/07/28 08:24:49;;;;;;;6.75;4.65;;;;;;;;;;4683537;30;20906;-80
2021/07/28 08:27:14;;;;;;;7.03;4.60;;;;;;;;;;4682079;30;20060;-80
2021/07/28 08:29:40;;;;;;;11.35;5.10;;;;;;;;;;4695794;30;20173;-79
2021/07/28 08:32:05;;;;;;;6.78;5.00;;;;;;;;;;4671792;30;20064;-80
2021/07/28 08:34:31;;;;;;;8.05;5.13;;;;;;;;;;4678319;30;20049;-79
2021/07/28 08:36:56;;;;;;;9.35;5.22;;;;;;;;;;4700992;30;20045;-79
2021/07/28 08:39:21;;;;;;;9.30;5.18;;;;;;;;;;4679365;30;20045;-79
2021/07/28 08:41:48;;;;;;;11.25;5.95;;;;;;;;;;4671627;30;20089;-79
2021/07/28 08:44:21;;;;;;;8.40;5.28;;;;;;;;;;4685488;30;20037;-79
2021/07/28 08:46:49;;;;;;;8.82;5.00;;;;;;;;;;4681116;30;20538;-79
2021/07/28 08:49:14;;;;;;;8.13;4.85;;;;;;;;;;4672716;30;20136;-80
2021/07/28 08:51:43;;;;;;;6.88;4.30;;;;;;;;;;4675408;30;20113;-79
2021/07/28 08:54:09;;;;;;;8.15;4.85;;;;;;;;;;4701125;30;20072;-79
2021/07/28 08:56:40;;;;;;;6.13;3.90;;;;;;;;;;4677178;30;20042;-79
2021/07/28 08:59:06;;;;;;;6.05;3.83;;;;;;;;;;4673485;30;20088;-80
2021/07/28 09:01:31;;;;;;;7.53;3.75;;;;;;;;;;4688915;30;20033;-79
2021/07/28 09:03:56;;;;;;;7.05;4.10;;;;;;;;;;4674330;30;20052;-80
2021/07/28 09:06:27;;;;;;;4.78;3.60;;;;;;;;;;4691239;30;20060;-80
2021/07/28 09:09:02;;;;;;;5.93;3.55;;;;;;;;;;4696843;30;20460;-79
2021/07/28 09:11:28;;;;;;;7.40;3.42;;;;;;;;;;4699008;30;20033;-80
2021/07/28 09:13:56;;;;;;;6.10;3.33;;;;;;;;;;4675901;30;20194;-80
2021/07/28 09:16:22;;;;;;;7.72;3.50;;;;;;;;;;4687094;30;20037;-79
2021/07/28 09:18:50;;;;;;;6.38;3.58;;;;;;;;;;4683664;30;20037;-79
2021/07/28 09:21:29;;;;;;;7.72;3.65;;;;;;;;;;4680217;30;20045;-79
2021/07/28 09:24:13;;;;;;;7.07;3.72;;;;;;;;;;4678971;30;20041;-79
2021/07/28 09:26:50;;;;;;;7.88;3.72;;;;;;;;;;4694778;30;20068;-79
2021/07/28 09:29:25;;;;;;;8.00;3.70;;;;;;;;;;4689042;30;20050;-79
2021/07/28 09:31:53;;;;;;;6.05;3.35;;;;;;;;;;4679181;30;20045;-80
2021/07/28 09:34:22;;;;;;;5.70;3.15;;;;;;;;;;4678185;30;20042;-79
2021/07/28 09:36:52;;;;;;;6.95;4.03;;;;;;;;;;4704215;30;20044;-80
2021/07/28 09:39:28;;;;;;;9.75;3.97;;;;;;;;;;4683601;30;20056;-79
2021/07/28 09:41:55;;;;;;;5.80;3.45;;;;;;;;;;4687590;30;20059;-80
2021/07/28 09:44:32;;;;;;;6.57;3.28;;;;;;;;;;4680458;30;20037;-80
2021/07/28 09:47:09;;;;;;;6.90;3.50;;;;;;;;;;4674620;30;20063;-80
2021/07/28 09:49:36;;;;;;;11.38;3.83;;;;;;;;;;4669315;30;20133;-80
2021/07/28 09:52:21;;;;;;;9.50;2.97;;;;;;;;;;4702265;30;20045;-80
2021/07/28 09:54:49;;;;;;;7.43;3.20;;;;;;;;;;4699508;30;20072;-80
2021/07/28 09:57:20;;;;;;;6.03;2.80;;;;;;;;;;4684195;30;20159;-80
2021/07/28 09:59:51;;;;;;;6.40;3.00;;;;;;;;;;4674128;30;20050;-80
2021/07/28 10:02:17;;;;;;;6.13;3.00;;;;;;;;;;4697697;30;20037;-80
2021/07/28 10:04:51;;;;;;;5.85;3.20;;;;;;;;;;4680924;30;20856;-79
2021/07/28 10:07:18;;;;;;;6.15;3.03;;;;;;;;;;4669108;30;20104;-80
2021/07/28 10:09:51;;;;;;;4.85;2.83;;;;;;;;;;4673484;30;20045;-79
2021/07/28 10:12:16;;;;;;;7.45;2.47;;;;;;;;;;4686132;30;20091;-79
2021/07/28 10:14:43;;;;;;;7.70;2.90;;;;;;;;;;4674958;30;20494;-79
2021/07/28 10:17:10;;;;;;;4.88;3.30;;;;;;;;;;4664723;30;20057;-79
2021/07/28 10:19:37;;;;;;;7.38;2.95;;;;;;;;;;4676038;30;20033;-79
2021/07/28 10:22:03;;;;;;;5.70;2.72;;;;;;;;;;4686510;30;20037;-79
2021/07/28 10:24:28;;;;;;;6.25;2.92;;;;;;;;;;4686513;30;20059;-79
2021/07/28 10:26:54;;;;;;;6.20;2.92;;;;;;;;;;4676846;30;20049;-79
2021/07/28 10:29:20;;;;;;;6.78;2.72;;;;;;;;;;4686738;30;20058;-79
2021/07/28 10:31:51;;;;;;;7.28;2.88;;;;;;;;;;4682377;30;20104;-78
2021/07/28 10:34:29;;;;;;;4.75;2.65;;;;;;;;;;4675278;30;20053;-79
2021/07/28 10:37:01;;;;;;;3.83;2.60;;;;;;;;;;4689245;30;20037;-79
2021/07/28 10:39:52;;;;;;;5.38;2.88;;;;;;;;;;4682988;30;20077;-79
2021/07/28 10:42:38;;;;;;;6.82;2.80;;;;;;;;;;4693214;30;20076;-79
2021/07/28 10:45:09;;;;;;;7.25;2.95;;;;;;;;;;4679250;30;20400;-79
2021/07/28 10:47:34;;;;;;;6.38;3.03;;;;;;;;;;4672045;30;20041;-81
2021/07/28 10:50:01;;;;;;;5.10;3.17;;;;;;;;;;4679632;30;20049;-81
2021/07/28 10:52:37;;;;;;;5.03;2.72;;;;;;;;;;4689479;30;20092;-81
2021/07/28 10:55:02;;;;;;;6.38;2.80;;;;;;;;;;4688068;30;20044;-79
2021/07/28 10:57:34;;;;;;;8.05;2.67;;;;;;;;;;4692222;30;20041;-80
2021/07/28 11:00:11;;;;;;;5.40;2.65;;;;;;;;;;4685737;30;20054;-80
2021/07/28 11:02:57;;;;;;;8.00;2.95;;;;;;;;;;4695580;30;20545;-80
2021/07/28 11:05:49;;;;;;;5.65;2.60;;;;;;;;;;4681487;30;20073;-80
2021/07/28 11:08:20;;;;;;;8.18;2.78;;;;;;;;;;4669686;30;20049;-80
2021/07/28 11:10:45;;;;;;;4.10;2.60;;;;;;;;;;4676438;30;20037;-81
2021/07/28 11:13:11;;;;;;;5.80;2.50;;;;;;;;;;4694766;30;20034;-81
2021/07/28 11:15:38;;;;;;;6.25;2.60;;;;;;;;;;4675389;30;20037;-79
2021/07/28 11:18:04;;;;;;;3.70;2.25;;;;;;;;;;4693209;30;20394;-80
2021/07/28 11:20:40;;;;;;;4.97;2.75;;;;;;;;;;4675315;30;20036;-80
2021/07/28 11:23:20;;;;;;;6.43;2.58;;;;;;;;;;4670422;30;20051;-80
2021/07/28 11:25:50;;;;;;;7.43;2.70;;;;;;;;;;4690400;30;20068;-80
2021/07/28 11:28:22;;;;;;;4.82;2.45;;;;;;;;;;4666243;30;20143;-81
2021/07/28 11:30:59;;;;;;;4.23;2.20;;;;;;;;;;4687674;30;20048;-80
2021/07/28 11:33:25;;;;;;;5.55;2.63;;;;;;;;;;4692470;30;20336;-79
2021/07/28 11:35:53;;;;;;;6.57;2.40;;;;;;;;;;4669050;30;20428;-80
2021/07/28 11:38:21;;;;;;;5.35;2.38;;;;;;;;;;4684800;30;20042;-81
2021/07/28 11:40:53;;;;;;;6.20;2.55;;;;;;;;;;4674775;30;20049;-80
2021/07/28 11:43:35;;;;;;;4.10;2.25;;;;;;;;;;4672487;30;20076;-81
2021/07/28 11:46:18;;;;;;;4.77;2.17;;;;;;;;;;4690941;30;20041;-81
2021/07/28 11:48:44;;;;;;;;;;;;;;;;;;4685920;30;20045;-80
2021/07/28 11:51:31;;;;;;;5.35;2.40;;;;;;;;;;4679506;30;19930;-80
2021/07/28 11:54:09;;;;;;;6.28;2.40;;;;;;;;;;4677010;30;20043;-80
2021/07/28 11:56:34;;;;;;;4.68;2.40;;;;;;;;;;4683149;30;20045;-80
2021/07/28 11:59:00;;;;;;;5.88;2.70;;;;;;;;;;4673889;30;20815;-80
2021/07/28 12:01:29;;;;;;;4.45;2.40;;;;;;;;;;4678402;30;20778;-79
2021/07/28 12:03:57;;;;;;;5.38;2.60;;;;;;;;;;4675192;30;20494;-80
2021/07/28 12:06:34;;;;;;;5.50;2.45;;;;;;;;;;4687859;30;20049;-80
2021/07/28 12:09:20;;;;;;;4.32;2.28;;;;;;;;;;4664491;30;20022;-80
2021/07/28 12:11:46;;;;;;;5.25;2.47;;;;;;;;;;4677036;30;20432;-80
2021/07/28 12:14:30;;;;;;;4.32;2.30;;;;;;;;;;4683337;30;20029;-80
2021/07/28 12:16:59;;;;;;;7.35;2.80;;;;;;;;;;4690802;30;20441;-81
2021/07/28 12:19:26;;;;;;;7.43;2.65;;;;;;;;;;4683638;30;20602;-80
2021/07/28 12:21:53;;;;;;;5.85;2.95;;;;;;;;;;4672309;30;20033;-80
2021/07/28 12:24:35;;;;;;;4.40;2.90;;;;;;;;;;4659194;30;20045;-81
2021/07/28 12:27:25;;;;;;;4.50;2.90;;;;;;;;;;4674748;30;20049;-80
2021/07/28 12:30:07;;;;;;;4.32;2.80;;;;;;;;;;4672502;30;20058;-81
2021/07/28 12:32:38;;;;;;;6.57;2.50;;;;;;;;;;4672312;30;20041;-80
2021/07/28 12:35:27;;;;;;;5.97;2.50;;;;;;;;;;4671948;30;20068;-80
2021/07/28 12:38:11;;;;;;;7.63;2.78;;;;;;;;;;4673827;30;21131;-81
2021/07/28 12:40:39;;;;;;;8.68;3.30;;;;;;;;;;4683709;30;20037;-79
2021/07/28 12:43:06;;;;;;;6.30;3.58;;;;;;;;;;4669561;30;20559;-79
2021/07/28 12:45:35;;;;;;;6.32;3.60;;;;;;;;;;4692453;30;20033;-79
2021/07/28 12:48:01;;;;;;;6.50;3.33;;;;;;;;;;4680552;30;20042;-80
2021/07/28 12:50:26;;;;;;;6.05;3.25;;;;;;;;;;4682089;30;20576;-80
2021/07/28 12:52:52;;;;;;;6.38;2.97;;;;;;;;;;4663380;30;20121;-80
2021/07/28 12:55:17;;;;;;;5.68;3.10;;;;;;;;;;4670913;30;20049;-79
2021/07/28 12:57:43;;;;;;;7.50;3.65;;;;;;;;;;4686627;30;20115;-79
2021/07/28 13:00:09;;;;;;;5.38;3.10;;;;;;;;;;4681253;30;20061;-79
2021/07/28 13:02:34;;;;;;;5.57;3.78;;;;;;;;;;4657872;30;20045;-79
2021/07/28 13:05:00;;;;;;;6.22;3.40;;;;;;;;;;4683506;30;20132;-79
2021/07/28 13:07:35;;;;;;;5.95;3.80;;;;;;;;;;4679811;30;20037;-79
2021/07/28 13:10:00;;;;;;;6.03;3.72;;;;;;;;;;4684211;30;20053;-79
2021/07/28 13:12:25;;;;;;;5.43;3.50;;;;;;;;;;4666871;30;20045;-79
2021/07/28 13:14:51;;;;;;;5.88;3.20;;;;;;;;;;4671817;30;20041;-79
2021/07/28 13:17:16;;;;;;;6.57;3.22;;;;;;;;;;4664459;30;20414;-80
2021/07/28 13:19:42;;;;;;;5.85;3.03;;;;;;;;;;4671079;30;20109;-80
2021/07/28 13:22:08;;;;;;;7.35;2.90;;;;;;;;;;4668351;30;20430;-80
2021/07/28 13:24:33;;;;;;;4.05;2.58;;;;;;;;;;4666841;30;20048;-79
2021/07/28 13:26:59;;;;;;;4.10;2.47;;;;;;;;;;4666539;30;20049;-79
2021/07/28 13:29:24;;;;;;;4.85;2.53;;;;;;;;;;4682417;30;20046;-80
2021/07/28 13:31:49;;;;;;;3.22;2.15;;;;;;;;;;4685593;30;20079;-80
2021/07/28 13:34:15;;;;;;;4.55;2.40;;;;;;;;;;4685103;30;20483;-79
2021/07/28 13:36:40;;;;;;;5.88;2.65;;;;;;;;;;4672375;30;20045;-79
2021/07/28 13:39:07;;;;;;;3.60;2.55;;;;;;;;;;4688628;30;20056;-79
2021/07/28 13:41:33;;;;;;;3.80;2.50;;;;;;;;;;4688791;30;20045;-79
2021/07/28 13:43:58;;;;;;;3.78;2.28;;;;;;;;;;4684930;30;20045;-79
2021/07/28 13:46:24;;;;;;;5.43;2.20;;;;;;;;;;4688685;30;22366;-79
2021/07/28 13:48:50;;;;;;;3.30;2.10;;;;;;;;;;4671765;30;20129;-79
2021/07/28 13:51:16;;;;;;;5.57;2.15;;;;;;;;;;4672278;30;20095;-79
2021/07/28 13:53:41;;;;;;;3.60;2.10;;;;;;;;;;4657534;30;20073;-81
2021/07/28 13:56:06;;;;;;;5.50;2.10;;;;;;;;;;4663789;30;20098;-80
2021/07/28 13:58:32;;;;;;;3.00;2.13;;;;;;;;;;4664454;30;20038;-81
2021/07/28 14:00:58;;;;;;;4.82;2.00;;;;;;;;;;4661284;30;20034;-80
2021/07/28 14:03:24;;;;;;;4.55;1.92;;;;;;;;;;4680750;30;20038;-81
2021/07/28 14:05:50;;;;;;;3.33;1.80;;;;;;;;;;4669391;30;20854;-80
2021/07/28 14:08:15;;;;;;;3.25;1.92;;;;;;;;;;4682362;30;20041;-80
2021/07/28 14:10:41;;;;;;;4.32;2.33;;;;;;;;;;4685249;30;20054;-80
2021/07/28 14:13:07;;;;;;;3.67;2.30;;;;;;;;;;4682531;30;20059;-80
2021/07/28 14:15:32;;;;;;;5.25;2.15;;;;;;;;;;4672971;30;20061;-80
2021/07/28 14:17:58;;;;;;;4.28;2.10;;;;;;;;;;4684909;30;20745;-80
2021/07/28 14:20:23;;;;;;;3.47;2.30;;;;;;;;;;4687053;30;20053;-80
2021/07/28 14:22:49;;;;;;;6.15;2.53;;;;;;;;;;4661365;30;20077;-80
2021/07/28 14:25:15;;;;;;;5.20;2.60;;;;;;;;;;4692308;30;20115;-80
2021/07/28 14:27:41;;;;;;;6.53;2.78;;;;;;;;;;4660266;30;20111;-80
2021/07/28 14:30:07;;;;;;;3.80;2.35;;;;;;;;;;4676214;30;20046;-81
2021/07/28 14:32:32;;;;;;;6.22;2.78;;;;;;;;;;4674931;30;20049;-81
2021/07/28 14:34:58;;;;;;;6.50;2.53;;;;;;;;;;4678679;30;20038;-80
2021/07/28 14:37:24;;;;;;;5.97;2.63;;;;;;;;;;4667239;30;20042;-81
2021/07/28 14:39:49;;;;;;;5.22;2.47;;;;;;;;;;4677446;30;20443;-81
2021/07/28 14:42:15;;;;;;;3.92;2.35;;;;;;;;;;4668462;30;20140;-81